createdAt,value
2022-08-26T00:00:53.163Z,21.78
2022-08-26T00:03:20.175Z,21.86
2022-08-26T00:05:47.971Z,21.86
2022-08-26T00:08:15.504Z,21.83
2022-08-26T00:10:42.882Z,21.82
2022-08-26T00:13:10.915Z,21.82
2022-08-26T00:15:39.338Z,21.80
2022-08-26T00:18:21.844Z,21.80
2022-08-26T00:20:48.747Z,21.80
2022-08-26T00:23:15.596Z,21.83
2022-08-26T00:25:43.264Z,21.82
2022-08-26T00:28:10.302Z,21.84
2022-08-26T00:30:38.188Z,21.84
2022-08-26T00:33:05.267Z,21.84
2022-08-26T00:35:33.592Z,21.84
2022-08-26T00:38:00.430Z,21.73
2022-08-26T00:40:30.133Z,21.71
2022-08-26T00:42:57.476Z,21.81
2022-08-26T00:45:24.375Z,21.82
2022-08-26T00:48:01.071Z,21.80
2022-08-26T00:50:33.325Z,21.78
2022-08-26T00:53:03.467Z,21.77
2022-08-26T00:55:38.381Z,21.76
2022-08-26T00:58:06.756Z,21.75
2022-08-26T01:00:33.799Z,21.74
2022-08-26T01:03:02.960Z,21.73
2022-08-26T01:05:31.935Z,21.71
2022-08-26T01:07:58.585Z,21.70
2022-08-26T01:10:29.199Z,21.68
2022-08-26T01:13:00.307Z,21.67
2022-08-26T01:15:32.931Z,21.65
2022-08-26T01:18:00.439Z,21.64
2022-08-26T01:20:39.610Z,21.59
2022-08-26T01:23:08.626Z,21.47
2022-08-26T01:25:40.831Z,21.53
2022-08-26T01:28:19.943Z,21.52
2022-08-26T01:30:48.302Z,21.47
2022-08-26T01:33:19.158Z,21.45
2022-08-26T01:35:46.829Z,21.42
2022-08-26T01:38:16.275Z,21.40
2022-08-26T01:40:43.441Z,21.37
2022-08-26T01:43:16.953Z,21.34
2022-08-26T01:45:46.792Z,21.33
2022-08-26T01:48:20.998Z,21.30
2022-08-26T01:50:48.161Z,21.27
2022-08-26T01:53:18.112Z,21.24
2022-08-26T01:55:48.140Z,21.22
2022-08-26T01:58:23.495Z,21.18
2022-08-26T02:00:51.050Z,21.16
2022-08-26T02:03:18.698Z,21.13
2022-08-26T02:05:51.405Z,21.11
2022-08-26T02:08:24.676Z,21.10
2022-08-26T02:10:54.785Z,21.08
2022-08-26T02:13:22.990Z,21.08
2022-08-26T02:15:52.456Z,21.06
2022-08-26T02:18:19.617Z,21.04
2022-08-26T02:20:46.284Z,21.01
2022-08-26T02:23:12.951Z,21.01
2022-08-26T02:26:09.930Z,20.98
2022-08-26T02:28:46.455Z,20.98
2022-08-26T02:31:13.233Z,20.96
2022-08-26T02:33:43.039Z,20.95
2022-08-26T02:36:10.303Z,20.93
2022-08-26T02:38:38.678Z,20.91
2022-08-26T02:41:06.341Z,20.88
2022-08-26T02:43:34.724Z,20.88
2022-08-26T02:46:02.446Z,20.86
2022-08-26T02:48:30.199Z,20.84
2022-08-26T02:50:59.876Z,20.81
2022-08-26T02:53:26.495Z,20.81
2022-08-26T02:55:54.489Z,20.77
2022-08-26T02:58:21.090Z,20.75
2022-08-26T03:00:52.626Z,20.75
2022-08-26T03:03:20.086Z,20.72
2022-08-26T03:05:49.151Z,20.70
2022-08-26T03:08:15.817Z,20.68
2022-08-26T03:10:42.393Z,20.65
2022-08-26T03:13:09.231Z,20.62
2022-08-26T03:15:35.911Z,20.60
2022-08-26T03:18:04.018Z,20.59
2022-08-26T03:20:31.362Z,20.58
2022-08-26T03:22:58.004Z,20.55
2022-08-26T03:25:26.047Z,20.53
2022-08-26T03:27:53.582Z,20.52
2022-08-26T03:30:22.773Z,20.50
2022-08-26T03:32:49.355Z,20.48
2022-08-26T03:35:16.666Z,20.46
2022-08-26T03:37:43.360Z,20.46
2022-08-26T03:40:11.152Z,20.44
2022-08-26T03:42:39.007Z,20.44
2022-08-26T03:45:08.312Z,20.44
2022-08-26T03:47:35.012Z,20.44
2022-08-26T03:50:06.899Z,20.43
2022-08-26T03:52:33.689Z,20.43
2022-08-26T03:55:00.475Z,20.42
2022-08-26T03:57:27.269Z,20.41
2022-08-26T03:59:54.511Z,20.40
2022-08-26T04:02:21.184Z,20.39
2022-08-26T04:04:47.813Z,20.37
2022-08-26T04:07:14.781Z,20.36
2022-08-26T04:09:41.504Z,20.33
2022-08-26T04:12:08.650Z,20.31
2022-08-26T04:14:35.273Z,20.28
2022-08-26T04:17:05.017Z,20.26
2022-08-26T04:19:32.455Z,20.14
2022-08-26T04:21:59.943Z,20.23
2022-08-26T04:24:27.791Z,20.23
2022-08-26T04:26:54.790Z,20.25
2022-08-26T04:29:25.321Z,20.22
2022-08-26T04:31:55.729Z,20.21
2022-08-26T04:34:24.226Z,20.23
2022-08-26T04:36:54.067Z,20.22
2022-08-26T04:39:20.605Z,20.23
2022-08-26T04:41:50.217Z,20.22
2022-08-26T04:44:18.393Z,20.23
2022-08-26T04:46:45.137Z,20.24
2022-08-26T04:49:12.705Z,20.27
2022-08-26T04:51:40.176Z,20.27
2022-08-26T04:54:07.216Z,20.31
2022-08-26T04:56:37.377Z,20.34
2022-08-26T04:59:07.240Z,20.36
2022-08-26T05:01:38.768Z,20.40
2022-08-26T05:04:08.128Z,20.42
2022-08-26T05:06:37.046Z,20.47
2022-08-26T05:09:04.408Z,20.51
2022-08-26T05:11:31.023Z,20.55
2022-08-26T05:14:01.610Z,20.60
2022-08-26T05:16:28.972Z,20.67
2022-08-26T05:18:56.283Z,20.70
2022-08-26T05:21:26.363Z,20.75
2022-08-26T05:23:53.786Z,20.78
2022-08-26T05:26:23.310Z,20.84
2022-08-26T05:28:50.479Z,20.89
2022-08-26T05:31:27.448Z,20.95
2022-08-26T05:33:55.222Z,21.05
2022-08-26T05:36:24.141Z,21.09
2022-08-26T05:38:54.119Z,21.18
2022-08-26T05:41:24.015Z,21.26
2022-08-26T05:43:52.049Z,21.34
2022-08-26T05:46:18.743Z,21.31
2022-08-26T05:48:45.523Z,21.47
2022-08-26T05:51:14.824Z,21.58
2022-08-26T05:53:43.995Z,21.64
2022-08-26T05:56:22.645Z,21.72
2022-08-26T05:58:49.251Z,21.79
2022-08-26T06:01:22.213Z,21.87
2022-08-26T06:03:52.680Z,21.96
2022-08-26T06:06:27.410Z,22.04
2022-08-26T06:08:57.392Z,22.13
2022-08-26T06:11:25.227Z,22.10
2022-08-26T06:13:53.533Z,22.28
2022-08-26T06:16:23.522Z,22.36
2022-08-26T06:18:52.524Z,22.40
2022-08-26T06:21:29.261Z,22.45
2022-08-26T06:24:00.670Z,22.52
2022-08-26T06:26:27.944Z,22.59
2022-08-26T06:28:55.068Z,22.63
2022-08-26T06:31:23.162Z,22.68
2022-08-26T06:33:50.552Z,22.71
2022-08-26T06:36:19.248Z,22.76
2022-08-26T06:38:47.888Z,22.77
2022-08-26T06:41:15.105Z,22.81
2022-08-26T06:43:41.754Z,22.80
2022-08-26T06:46:12.184Z,22.83
2022-08-26T06:48:39.254Z,22.87
2022-08-26T06:51:11.736Z,22.89
2022-08-26T06:53:39.455Z,22.93
2022-08-26T06:56:09.837Z,22.96
2022-08-26T06:58:39.125Z,23.00
2022-08-26T07:01:26.372Z,23.01
2022-08-26T07:03:56.988Z,23.09
2022-08-26T07:06:24.938Z,23.16
2022-08-26T07:08:53.648Z,23.25
2022-08-26T07:11:20.718Z,23.34
2022-08-26T07:13:47.884Z,23.44
2022-08-26T07:16:16.409Z,23.54
2022-08-26T07:18:44.768Z,23.66
2022-08-26T07:21:14.226Z,23.78
2022-08-26T07:23:41.209Z,23.86
2022-08-26T07:26:11.948Z,23.96
2022-08-26T07:28:38.963Z,24.05
2022-08-26T07:31:10.050Z,24.14
2022-08-26T07:33:38.265Z,24.25
2022-08-26T07:36:07.103Z,24.35
2022-08-26T07:38:33.895Z,24.32
2022-08-26T07:41:00.887Z,24.52
2022-08-26T07:43:28.884Z,24.66
2022-08-26T07:45:56.433Z,24.78
2022-08-26T07:48:24.419Z,24.89
2022-08-26T07:50:51.017Z,25.01
2022-08-26T07:53:21.586Z,25.13
2022-08-26T07:55:51.563Z,25.28
2022-08-26T07:58:18.891Z,25.34
2022-08-26T08:00:46.136Z,25.48
2022-08-26T08:03:13.800Z,25.56
2022-08-26T08:05:41.370Z,25.50
2022-08-26T08:08:26.515Z,25.66
2022-08-26T08:10:55.552Z,25.74
2022-08-26T08:13:23.631Z,25.81
2022-08-26T08:15:51.110Z,25.88
2022-08-26T08:18:20.470Z,25.94
2022-08-26T08:20:54.550Z,26.02
2022-08-26T08:23:32.489Z,26.10
2022-08-26T08:26:08.315Z,26.16
2022-08-26T08:28:35.863Z,26.27
2022-08-26T08:31:03.369Z,26.32
2022-08-26T08:33:30.182Z,26.38
2022-08-26T08:35:58.509Z,26.47
2022-08-26T08:38:25.708Z,26.51
2022-08-26T08:40:53.221Z,26.41
2022-08-26T08:43:38.334Z,26.58
2022-08-26T08:46:12.628Z,26.65
2022-08-26T08:48:43.678Z,26.71
2022-08-26T08:51:26.051Z,26.79
2022-08-26T08:53:54.991Z,26.90
2022-08-26T08:56:28.924Z,26.94
2022-08-26T08:59:00.843Z,27.02
2022-08-26T09:01:42.369Z,27.04
2022-08-26T09:04:23.394Z,27.10
2022-08-26T09:06:55.723Z,27.15
2022-08-26T09:09:37.513Z,27.18
2022-08-26T09:12:07.637Z,27.28
2022-08-26T09:14:35.999Z,27.29
2022-08-26T09:17:15.848Z,27.36
2022-08-26T09:19:52.969Z,27.42
2022-08-26T09:22:32.311Z,27.46
2022-08-26T09:24:59.681Z,27.58
2022-08-26T09:27:45.701Z,27.54
2022-08-26T09:30:22.548Z,27.56
2022-08-26T09:33:10.002Z,27.53
2022-08-26T09:35:40.038Z,27.53
2022-08-26T09:38:28.032Z,27.58
2022-08-26T09:41:07.197Z,27.57
2022-08-26T09:43:35.432Z,27.56
2022-08-26T09:46:18.255Z,27.62
2022-08-26T09:48:45.340Z,27.71
2022-08-26T09:51:20.687Z,27.64
2022-08-26T09:53:56.108Z,27.62
2022-08-26T09:56:35.881Z,27.59
2022-08-26T09:59:03.890Z,27.61
2022-08-26T10:01:42.530Z,27.59
2022-08-26T10:04:13.642Z,27.57
2022-08-26T10:06:43.595Z,27.56
2022-08-26T10:09:13.798Z,27.48
2022-08-26T10:11:48.901Z,27.39
2022-08-26T10:14:21.712Z,27.37
2022-08-26T10:17:23.589Z,27.21
2022-08-26T10:20:22.467Z,27.17
2022-08-26T10:22:52.372Z,27.11
2022-08-26T10:25:24.567Z,27.07
2022-08-26T10:28:12.368Z,27.04
2022-08-26T10:30:51.095Z,27.07
2022-08-26T10:33:18.324Z,27.10
2022-08-26T10:35:53.971Z,27.11
2022-08-26T10:38:27.494Z,27.10
2022-08-26T10:41:09.721Z,27.11
2022-08-26T10:43:41.189Z,27.11
2022-08-26T10:46:19.626Z,27.18
2022-08-26T10:49:03.275Z,27.13
2022-08-26T10:51:39.458Z,27.15
2022-08-26T10:54:15.774Z,27.16
2022-08-26T10:57:22.631Z,27.15
2022-08-26T11:00:11.321Z,27.16
2022-08-26T11:02:47.082Z,27.23
2022-08-26T11:05:20.841Z,27.33
2022-08-26T11:07:48.861Z,27.38
2022-08-26T11:10:18.999Z,27.36
2022-08-26T11:12:49.142Z,27.41
2022-08-26T11:15:25.229Z,27.43
2022-08-26T11:17:51.808Z,27.49
2022-08-26T11:20:27.963Z,27.55
2022-08-26T11:22:56.204Z,27.65
2022-08-26T11:25:30.061Z,27.73
2022-08-26T11:27:59.351Z,27.86
2022-08-26T11:30:34.047Z,27.99
2022-08-26T11:33:00.917Z,28.15
2022-08-26T11:35:27.483Z,28.26
2022-08-26T11:37:57.078Z,28.32
2022-08-26T11:40:36.987Z,28.43
2022-08-26T11:43:07.815Z,28.56
2022-08-26T11:45:37.913Z,28.69
2022-08-26T11:48:22.891Z,28.86
2022-08-26T11:51:04.293Z,29.02
2022-08-26T11:53:33.876Z,29.20
2022-08-26T11:56:04.873Z,29.31
2022-08-26T11:58:32.088Z,29.42
2022-08-26T12:01:05.044Z,29.59
2022-08-26T12:03:50.098Z,29.71
2022-08-26T12:09:20.544Z,30.01
2022-08-26T12:11:47.183Z,30.14
2022-08-26T12:14:20.429Z,30.28
2022-08-26T12:16:47.254Z,30.37
2022-08-26T12:19:32.700Z,30.44
2022-08-26T12:22:06.485Z,30.49
2022-08-26T12:24:33.566Z,30.60
2022-08-26T12:27:16.918Z,30.57
2022-08-26T12:29:44.124Z,30.61
2022-08-26T12:32:17.883Z,30.77
2022-08-26T12:34:48.265Z,30.75
2022-08-26T12:37:15.536Z,30.75
2022-08-26T12:39:44.482Z,30.76
2022-08-26T12:42:13.750Z,30.85
2022-08-26T12:44:59.423Z,30.93
2022-08-26T12:47:35.140Z,31.00
2022-08-26T12:50:20.712Z,31.02
2022-08-26T12:53:13.820Z,30.91
2022-08-26T12:55:45.273Z,31.07
2022-08-26T12:58:32.070Z,31.11
2022-08-26T13:01:04.484Z,31.16
2022-08-26T13:03:33.795Z,31.17
2022-08-26T13:06:22.026Z,31.08
2022-08-26T13:09:07.562Z,31.02
2022-08-26T13:11:54.045Z,31.07
2022-08-26T13:14:24.012Z,31.15
2022-08-26T13:16:52.396Z,31.09
2022-08-26T13:19:22.372Z,31.04
2022-08-26T13:21:54.844Z,31.10
2022-08-26T13:24:34.389Z,31.15
2022-08-26T13:27:01.579Z,31.17
2022-08-26T13:29:28.661Z,31.18
2022-08-26T13:31:55.493Z,31.19
2022-08-26T13:34:23.850Z,31.16
2022-08-26T13:36:52.705Z,31.17
2022-08-26T13:39:19.779Z,31.11
2022-08-26T13:41:47.029Z,31.07
2022-08-26T13:44:13.802Z,31.03
2022-08-26T13:46:40.748Z,31.08
2022-08-26T13:49:07.908Z,31.11
2022-08-26T13:51:34.721Z,31.15
2022-08-26T13:54:01.435Z,31.18
2022-08-26T13:56:29.223Z,31.16
2022-08-26T13:58:56.280Z,31.04
2022-08-26T14:01:23.647Z,31.16
2022-08-26T14:03:50.284Z,31.21
2022-08-26T14:06:16.914Z,31.26
2022-08-26T14:08:43.511Z,31.23
2022-08-26T14:11:10.728Z,31.15
2022-08-26T14:13:37.436Z,31.13
2022-08-26T14:16:09.049Z,31.08
2022-08-26T14:18:41.812Z,31.00
2022-08-26T14:21:12.787Z,30.94
2022-08-26T14:23:39.701Z,30.92
2022-08-26T14:26:06.314Z,30.90
2022-08-26T14:28:32.951Z,30.92
2022-08-26T14:30:59.676Z,30.98
2022-08-26T14:33:29.928Z,31.02
2022-08-26T14:35:56.460Z,31.16
2022-08-26T14:38:23.041Z,31.25
2022-08-26T14:40:49.693Z,31.29
2022-08-26T14:43:16.394Z,31.43
2022-08-26T14:45:44.385Z,31.49
2022-08-26T14:48:11.086Z,31.54
2022-08-26T14:50:37.661Z,31.66
2022-08-26T14:53:04.303Z,31.81
2022-08-26T14:55:34.171Z,31.93
2022-08-26T14:58:00.992Z,32.07
2022-08-26T15:00:27.687Z,32.17
2022-08-26T15:02:54.527Z,32.30
2022-08-26T15:05:21.417Z,32.42
2022-08-26T15:07:47.963Z,32.58
2022-08-26T15:10:15.916Z,32.76
2022-08-26T15:12:43.207Z,32.92
2022-08-26T15:15:11.995Z,33.12
2022-08-26T15:17:39.532Z,33.22
2022-08-26T15:20:07.287Z,33.43
2022-08-26T15:22:34.156Z,33.55
2022-08-26T15:25:01.101Z,33.65
2022-08-26T15:27:27.963Z,33.76
2022-08-26T15:29:54.649Z,33.87
2022-08-26T15:32:21.336Z,33.99
2022-08-26T15:34:48.021Z,34.06
2022-08-26T15:37:17.486Z,34.09
2022-08-26T15:39:44.031Z,34.05
2022-08-26T15:42:10.906Z,34.07
2022-08-26T15:44:37.588Z,34.14
2022-08-26T15:47:04.277Z,34.27
2022-08-26T15:49:30.892Z,34.29
2022-08-26T15:51:57.426Z,34.42
2022-08-26T15:54:24.411Z,34.47
2022-08-26T15:56:51.386Z,34.41
2022-08-26T15:59:19.669Z,34.30
2022-08-26T16:01:46.723Z,34.32
2022-08-26T16:04:13.574Z,34.32
2022-08-26T16:06:41.545Z,34.40
2022-08-26T16:09:08.737Z,34.39
2022-08-26T16:11:35.789Z,34.38
2022-08-26T16:14:02.989Z,34.36
2022-08-26T16:16:29.679Z,34.32
2022-08-26T16:18:56.312Z,34.34
2022-08-26T16:21:26.151Z,34.26
2022-08-26T16:23:52.737Z,34.23
2022-08-26T16:26:24.290Z,34.06
2022-08-26T16:28:50.863Z,33.97
2022-08-26T16:31:18.024Z,33.99
2022-08-26T16:33:44.655Z,33.97
2022-08-26T16:36:12.119Z,33.96
2022-08-26T16:38:39.293Z,33.90
2022-08-26T16:41:07.127Z,33.96
2022-08-26T16:43:33.990Z,33.92
2022-08-26T16:46:00.643Z,33.92
2022-08-26T16:48:27.407Z,33.88
2022-08-26T16:50:54.017Z,33.90
2022-08-26T16:53:20.738Z,33.90
2022-08-26T16:55:48.683Z,33.89
2022-08-26T16:58:15.589Z,33.90
2022-08-26T17:00:42.972Z,33.93
2022-08-26T17:03:09.525Z,33.89
2022-08-26T17:05:36.606Z,33.86
2022-08-26T17:08:03.898Z,33.82
2022-08-26T17:10:31.021Z,33.76
2022-08-26T17:12:57.951Z,33.70
2022-08-26T17:15:24.549Z,33.62
2022-08-26T17:17:52.313Z,33.54
2022-08-26T17:20:19.519Z,33.33
2022-08-26T17:22:48.361Z,33.33
2022-08-26T17:25:22.048Z,33.19
2022-08-26T17:27:48.795Z,33.06
2022-08-26T17:30:16.009Z,32.89
2022-08-26T17:32:42.836Z,32.74
2022-08-26T17:35:11.076Z,32.49
2022-08-26T17:37:40.231Z,32.22
2022-08-26T17:40:10.239Z,31.92
2022-08-26T17:42:38.743Z,31.62
2022-08-26T17:45:06.043Z,31.30
2022-08-26T17:47:33.049Z,30.99
2022-08-26T17:49:59.677Z,30.68
2022-08-26T17:52:26.238Z,30.42
2022-08-26T17:54:54.501Z,30.15
2022-08-26T17:57:21.084Z,29.89
2022-08-26T17:59:47.680Z,29.66
2022-08-26T18:02:14.417Z,29.45
2022-08-26T18:04:41.105Z,29.23
2022-08-26T18:07:07.644Z,29.03
2022-08-26T18:09:34.437Z,28.85
2022-08-26T18:12:01.216Z,28.67
2022-08-26T18:14:27.894Z,28.51
2022-08-26T18:16:54.427Z,28.37
2022-08-26T18:19:21.243Z,28.26
2022-08-26T18:21:47.802Z,28.13
2022-08-26T18:24:14.638Z,28.01
2022-08-26T18:26:42.698Z,27.92
2022-08-26T18:29:09.363Z,27.82
2022-08-26T18:31:35.998Z,27.72
2022-08-26T18:34:02.786Z,27.64
2022-08-26T18:36:33.729Z,27.57
2022-08-26T18:39:01.129Z,27.49
2022-08-26T18:41:29.869Z,27.41
2022-08-26T18:43:58.301Z,27.33
2022-08-26T18:46:26.438Z,27.26
2022-08-26T18:48:55.587Z,27.20
2022-08-26T18:51:25.633Z,27.15
2022-08-26T18:53:53.068Z,27.11
2022-08-26T18:56:19.778Z,27.05
2022-08-26T18:58:46.722Z,27.00
2022-08-26T19:01:14.421Z,26.95
2022-08-26T19:03:41.152Z,26.89
2022-08-26T19:06:08.534Z,26.85
2022-08-26T19:08:35.108Z,26.79
2022-08-26T19:11:02.196Z,26.74
2022-08-26T19:13:28.936Z,26.72
2022-08-26T19:15:55.686Z,26.68
2022-08-26T19:18:22.220Z,26.65
2022-08-26T19:20:48.876Z,26.63
2022-08-26T19:23:30.765Z,26.59
2022-08-26T19:25:58.270Z,26.56
2022-08-26T19:28:25.172Z,26.53
2022-08-26T19:30:53.348Z,26.50
2022-08-26T19:33:20.344Z,26.45
2022-08-26T19:35:47.272Z,26.41
2022-08-26T19:38:14.044Z,26.33
2022-08-26T19:40:41.111Z,26.28
2022-08-26T19:43:07.936Z,26.16
2022-08-26T19:45:35.252Z,26.04
2022-08-26T19:48:02.399Z,25.91
2022-08-26T19:50:31.064Z,25.77
2022-08-26T19:52:58.652Z,25.66
2022-08-26T19:55:26.254Z,25.55
2022-08-26T19:57:52.840Z,25.45
2022-08-26T20:00:23.768Z,25.38
2022-08-26T20:02:51.428Z,25.31
2022-08-26T20:05:20.553Z,25.24
2022-08-26T20:07:47.950Z,25.21
2022-08-26T20:10:18.306Z,25.13
2022-08-26T20:12:44.862Z,25.09
2022-08-26T20:15:12.983Z,25.05
2022-08-26T20:17:41.077Z,25.01
2022-08-26T20:20:13.304Z,24.96
2022-08-26T20:22:55.365Z,24.92
2022-08-26T20:25:22.261Z,24.91
2022-08-26T20:27:48.849Z,24.84
2022-08-26T20:30:15.668Z,24.75
2022-08-26T20:32:43.130Z,24.68
2022-08-26T20:35:12.927Z,24.57
2022-08-26T20:37:40.339Z,24.48
2022-08-26T20:40:07.955Z,24.39
2022-08-26T20:42:35.048Z,24.31
2022-08-26T20:45:01.746Z,24.24
2022-08-26T20:47:28.474Z,24.17
2022-08-26T20:49:55.855Z,24.09
2022-08-26T20:52:22.423Z,24.03
2022-08-26T20:54:49.171Z,23.96
2022-08-26T20:57:15.790Z,23.88
2022-08-26T20:59:42.342Z,23.82
2022-08-26T21:02:09.117Z,23.75
2022-08-26T21:04:35.703Z,23.70
2022-08-26T21:07:02.365Z,23.65
2022-08-26T21:09:29.070Z,23.61
2022-08-26T21:11:57.395Z,23.57
2022-08-26T21:14:25.821Z,23.51
2022-08-26T21:16:53.270Z,23.48
2022-08-26T21:19:19.840Z,23.46
2022-08-26T21:21:48.051Z,23.45
2022-08-26T21:24:15.230Z,23.42
2022-08-26T21:26:42.480Z,23.37
2022-08-26T21:29:09.336Z,23.33
2022-08-26T21:31:37.041Z,23.30
2022-08-26T21:34:03.795Z,23.23
2022-08-26T21:36:30.486Z,23.18
2022-08-26T21:39:00.608Z,23.14
2022-08-26T21:41:28.822Z,23.11
2022-08-26T21:43:57.582Z,23.08
2022-08-26T21:46:25.649Z,23.04
2022-08-26T21:48:59.316Z,23.00
2022-08-26T21:51:29.106Z,22.96
2022-08-26T21:53:57.683Z,22.90
2022-08-26T21:56:26.350Z,22.82
2022-08-26T21:58:54.627Z,22.73
2022-08-26T22:01:24.331Z,22.63
2022-08-26T22:03:51.549Z,22.55
2022-08-26T22:06:20.814Z,22.46
2022-08-26T22:08:47.598Z,22.40
2022-08-26T22:11:14.627Z,22.35
2022-08-26T22:13:43.292Z,22.30
2022-08-26T22:16:10.746Z,22.24
2022-08-26T22:18:38.371Z,22.20
2022-08-26T22:21:10.557Z,22.14
2022-08-26T22:23:38.101Z,22.13
2022-08-26T22:26:07.155Z,22.09
2022-08-26T22:28:35.333Z,22.04
2022-08-26T22:31:02.119Z,21.88
2022-08-26T22:33:29.291Z,21.91
2022-08-26T22:35:56.028Z,21.86
2022-08-26T22:38:22.668Z,21.83
2022-08-26T22:40:54.690Z,21.78
2022-08-26T22:43:21.561Z,21.73
2022-08-26T22:45:49.562Z,21.71
2022-08-26T22:48:19.133Z,21.67
2022-08-26T22:50:47.490Z,21.66
2022-08-26T22:53:16.145Z,21.64
2022-08-26T22:55:43.830Z,21.63
2022-08-26T22:58:12.090Z,21.62
2022-08-26T23:00:39.037Z,21.61
2022-08-26T23:03:07.213Z,21.62
2022-08-26T23:05:34.078Z,21.62
2022-08-26T23:08:00.967Z,21.66
2022-08-26T23:10:27.668Z,21.68
2022-08-26T23:12:54.259Z,21.70
2022-08-26T23:15:21.262Z,21.71
2022-08-26T23:17:55.870Z,21.71
2022-08-26T23:20:26.764Z,21.71
2022-08-26T23:22:54.311Z,21.70
2022-08-26T23:25:22.062Z,21.69
2022-08-26T23:27:51.832Z,21.69
2022-08-26T23:30:22.226Z,21.67
2022-08-26T23:32:49.262Z,21.66
2022-08-26T23:35:16.812Z,21.65
2022-08-26T23:37:44.880Z,21.54
2022-08-26T23:40:26.738Z,21.61
2022-08-26T23:42:56.087Z,21.62
2022-08-26T23:45:24.704Z,21.62
2022-08-26T23:47:52.070Z,21.60
2022-08-26T23:50:21.051Z,21.60
2022-08-26T23:52:48.319Z,21.57
2022-08-26T23:55:15.444Z,21.56
2022-08-26T23:57:42.807Z,21.55
